Time;durP1;ratioP1;P1;durP2;ratioP2;P2;SDS_P1;SDS_P2;PMS_P1;PMS_P2;Temp;Humidity;BMP_temperature;BMP_pressure;BME280_temperature;BME280_humidity;BME280_pressure;Samples;Min_cycle;Max_cycle;Signal;HPM_P1;HPM_P2
2022/06/01 00:00:47;;;;;;;;;;;11.40;99.90;;;;;;5096643;28;19912;-70
2022/06/01 00:03:12;;;;;;;;;;;11.40;99.90;;;;;;5096370;28;19912;-70
2022/06/01 00:05:38;;;;;;;;;;;11.40;99.90;;;;;;5096462;28;19915;-70
2022/06/01 00:08:04;;;;;;;;;;;11.50;99.90;;;;;;5096444;28;20241;-70
2022/06/01 00:10:29;;;;;;;;;;;11.60;99.90;;;;;;5082683;28;20351;-70
2022/06/01 00:12:55;;;;;;;;;;;11.60;99.90;;;;;;5092515;28;19935;-70
2022/06/01 00:15:22;;;;;;;;;;;11.60;99.90;;;;;;5083117;28;19912;-70
2022/06/01 00:17:47;;;;;;;;;;;11.60;99.90;;;;;;5096232;28;19915;-70
2022/06/01 00:20:14;;;;;;;;;;;11.70;99.90;;;;;;5096052;28;19908;-70
2022/06/01 00:22:43;;;;;;;;;;;11.70;99.90;;;;;;5095763;28;19962;-70
2022/06/01 00:25:10;;;;;;;;;;;11.70;99.90;;;;;;5095813;28;19919;-70
2022/06/01 00:27:36;;;;;;;;;;;11.70;99.90;;;;;;5096087;28;19909;-70
2022/06/01 00:39:15;;;;;;;;;;;11.60;99.90;;;;;;5075720;28;20381;-82
2022/06/01 00:44:44;;;;;;;;;;;11.80;99.90;;;;;;5080873;28;19965;-82
2022/06/01 00:50:19;;;;;;;;;;;11.70;99.90;;;;;;5065713;28;19935;-82
2022/06/01 01:01:57;;;;;;;;;;;11.70;99.90;;;;;;5095789;28;19915;-82
2022/06/01 01:07:26;;;;;;;;;;;11.70;99.90;;;;;;5081908;28;20446;-82
2022/06/01 01:12:58;;;;;;;;;;;11.70;99.90;;;;;;5074780;28;19984;-82
2022/06/01 01:15:43;;;;;;;;;;;11.70;99.90;;;;;;5064299;28;20367;-70
2022/06/01 01:18:14;;;;;;;;;;;11.60;99.90;;;;;;5095154;28;20298;-70
2022/06/01 01:20:55;;;;;;;;;;;11.60;99.90;;;;;;5095147;28;19912;-70
2022/06/01 01:23:24;;;;;;;;;;;11.50;99.90;;;;;;5094821;28;19919;-70
2022/06/01 01:25:50;;;;;;;;;;;11.50;99.90;;;;;;5084812;28;19920;-70
2022/06/01 01:28:15;;;;;;;;;;;11.30;99.90;;;;;;5091548;28;19908;-70
2022/06/01 01:30:50;;;;;;;;;;;11.20;99.90;;;;;;5095238;28;19915;-70
2022/06/01 01:33:18;;;;;;;;;;;11.20;99.90;;;;;;5094645;28;19969;-70
2022/06/01 01:35:48;;;;;;;;;;;11.20;99.90;;;;;;5087145;28;19909;-70
2022/06/01 01:38:37;;;;;;;;;;;11.10;99.90;;;;;;5088957;28;19908;-70
2022/06/01 01:41:13;;;;;;;;;;;11.00;99.90;;;;;;5047707;28;20314;-70
2022/06/01 01:43:43;;;;;;;;;;;11.00;99.90;;;;;;5052084;28;19920;-70
2022/06/01 01:46:08;;;;;;;;;;;10.90;99.90;;;;;;5035547;28;19920;-71
2022/06/01 01:48:35;;;;;;;;;;;10.90;99.90;;;;;;5042964;28;20343;-70
2022/06/01 01:51:02;;;;;;;;;;;10.90;1.00;;;;;;5051920;28;19919;-70
2022/06/01 01:53:29;;;;;;;;;;;10.90;1.00;;;;;;5052038;28;19986;-70
2022/06/01 01:56:13;;;;;;;;;;;10.90;1.00;;;;;;5051721;28;19909;-70
2022/06/01 01:58:48;;;;;;;;;;;10.80;1.00;;;;;;5051713;28;19921;-70
2022/06/01 02:01:28;;;;;;;;;;;10.80;1.00;;;;;;5052005;28;19909;-70
2022/06/01 02:03:57;;;;;;;;;;;10.70;1.00;;;;;;5051720;28;19917;-70
2022/06/01 02:06:37;;;;;;;;;;;10.70;1.00;;;;;;5051865;28;20374;-70
2022/06/01 02:09:05;;;;;;;;;;;10.70;1.00;;;;;;5051114;28;19916;-70
2022/06/01 02:14:27;;;;;;;;;;;10.60;1.00;;;;;;5029735;28;19991;-70
2022/06/01 02:20:00;;;;;;;;;;;10.50;1.00;;;;;;5083552;28;20416;-82
2022/06/01 02:25:29;;;;;;;;;;;10.40;1.00;;;;;;5074027;28;19935;-82
2022/06/01 02:30:59;;;;;;;;;;;10.40;1.00;;;;;;5094384;28;19915;-83
2022/06/01 02:43:08;;;;;;;;;;;10.20;1.00;;;;;;5080027;28;19935;-82
2022/06/01 02:48:37;;;;;;;;;;;10.20;1.00;;;;;;5074967;28;20015;-70
2022/06/01 02:51:03;;;;;;;;;;;10.20;1.00;;;;;;5093973;28;19908;-70
2022/06/01 02:53:29;;;;;;;;;;;10.20;1.00;;;;;;5093943;28;20423;-70
2022/06/01 02:55:54;;;;;;;;;;;10.20;1.00;;;;;;5093496;28;19908;-70
2022/06/01 02:58:20;;;;;;;;;;;10.20;1.00;;;;;;5093729;28;19916;-70
2022/06/01 03:00:46;;;;;;;;;;;10.10;1.00;;;;;;5079739;28;19908;-70
2022/06/01 03:03:12;;;;;;;;;;;10.00;1.00;;;;;;5093998;28;19958;-70
2022/06/01 03:05:39;;;;;;;;;;;10.00;1.00;;;;;;5093668;28;19912;-70
2022/06/01 03:08:05;;;;;;;;;;;10.00;1.00;;;;;;5083122;28;19915;-70
2022/06/01 03:10:31;;;;;;;;;;;10.00;1.00;;;;;;5090871;28;19915;-70
2022/06/01 03:12:57;;;;;;;;;;;10.00;1.00;;;;;;5089392;28;19908;-71
2022/06/01 03:15:23;;;;;;;;;;;10.00;1.00;;;;;;5093576;28;19947;-70
2022/06/01 03:20:52;;;;;;;;;;;9.80;1.00;;;;;;5072808;28;19961;-82
2022/06/01 03:26:20;;;;;;;;;;;9.90;1.00;;;;;;5097153;28;20325;-82
2022/06/01 03:31:48;;;;;;;;;;;9.70;1.00;;;;;;5096431;28;19915;-69
2022/06/01 03:34:14;;;;;;;;;;;9.70;1.00;;;;;;5089886;28;19908;-70
2022/06/01 03:36:41;;;;;;;;;;;9.80;1.00;;;;;;5095968;28;20328;-70
2022/06/01 03:39:07;;;;;;;;;;;9.80;1.00;;;;;;5097061;28;20362;-70
2022/06/01 03:41:32;;;;;;;;;;;9.80;1.00;;;;;;5096950;28;19919;-70
2022/06/01 03:46:42;;;;;;;;;;;9.80;1.00;;;;;;5072857;28;19915;-70
2022/06/01 03:49:13;;;;;;;;;;;9.70;1.00;;;;;;5095707;28;19908;-83
2022/06/01 03:51:38;;;;;;;;;;;9.80;1.00;;;;;;5076935;28;19917;-83
2022/06/01 03:57:07;;;;;;;;;;;9.80;1.00;;;;;;5083456;28;20427;-82
2022/06/01 04:02:51;;;;;;;;;;;9.80;1.00;;;;;;5077261;28;20374;-82
2022/06/01 04:05:51;;;;;;;;;;;9.80;1.00;;;;;;5076521;28;20253;-83
2022/06/01 04:11:19;;;;;;;;;;;9.80;1.00;;;;;;5078467;28;19935;-83
2022/06/01 04:13:45;;;;;;;;;;;9.80;1.00;;;;;;5078684;28;20367;-83
2022/06/01 04:16:21;;;;;;;;;;;9.80;1.00;;;;;;5076323;28;19916;-82
2022/06/01 04:18:47;;;;;;;;;;;9.80;1.00;;;;;;5095566;28;19908;-70
2022/06/01 04:21:13;;;;;;;;;;;9.80;1.00;;;;;;5096153;28;19908;-70
2022/06/01 04:23:39;;;;;;;;;;;9.80;1.00;;;;;;5096139;28;19912;-70
2022/06/01 04:26:04;;;;;;;;;;;9.80;1.00;;;;;;5083929;28;19916;-70
2022/06/01 04:31:33;;;;;;;;;;;9.80;1.00;;;;;;5070930;28;19922;-80
2022/06/01 04:34:21;;;;;;;;;;;9.90;1.00;;;;;;5096439;28;19908;-80
2022/06/01 04:37:21;;;;;;;;;;;10.00;1.00;;;;;;5089365;28;19940;-79
2022/06/01 04:39:51;;;;;;;;;;;10.20;1.00;;;;;;5089236;28;19909;-79
2022/06/01 04:45:19;;;;;;;;;;;10.50;1.00;;;;;;5075060;28;19923;-79
2022/06/01 04:48:15;;;;;;;;;;;10.60;1.00;;;;;;5061476;28;19908;-76
2022/06/01 04:50:42;;;;;;;;;;;10.50;1.00;;;;;;5089640;28;19912;-75
2022/06/01 04:53:21;;;;;;;;;;;10.50;1.00;;;;;;5059442;28;20011;-74
2022/06/01 04:55:57;;;;;;;;;;;10.60;1.00;;;;;;5071568;28;19912;-75
2022/06/01 04:58:22;;;;;;;;;;;10.60;1.00;;;;;;5077476;28;19917;-75
2022/06/01 05:00:48;;;;;;;;;;;10.70;1.00;;;;;;5074727;28;19909;-75
2022/06/01 05:03:14;;;;;;;;;;;10.70;1.00;;;;;;5085666;28;19912;-75
2022/06/01 05:05:40;;;;;;;;;;;10.70;1.00;;;;;;5081603;28;19988;-75
2022/06/01 05:08:21;;;;;;;;;;;10.90;1.00;;;;;;5084995;28;20343;-75
2022/06/01 05:10:47;;;;;;;;;;;11.00;1.00;;;;;;5088931;28;19934;-75
2022/06/01 05:13:18;;;;;;;;;;;11.10;1.00;;;;;;5087539;28;20328;-75
2022/06/01 05:15:49;;;;;;;;;;;11.30;1.00;;;;;;5081730;28;19946;-75
2022/06/01 05:21:51;;;;;;;;;;;11.70;1.00;;;;;;5078190;28;20002;-78
2022/06/01 05:24:51;;;;;;;;;;;12.00;1.00;;;;;;5073750;28;19912;-78
2022/06/01 05:30:51;;;;;;;;;;;12.60;1.00;;;;;;5087903;28;19919;-79
2022/06/01 05:33:21;;;;;;;;;;;13.00;1.00;;;;;;5088882;28;19909;-75
2022/06/01 05:35:46;;;;;;;;;;;13.30;1.00;;;;;;5086722;28;19908;-74
2022/06/01 05:38:15;;;;;;;;;;;13.40;99.90;;;;;;5081517;28;19915;-75
2022/06/01 05:40:51;;;;;;;;;;;13.50;99.90;;;;;;5083103;28;19923;-76
2022/06/01 05:43:21;;;;;;;;;;;13.60;99.90;;;;;;5067407;28;19912;-75
2022/06/01 05:45:57;;;;;;;;;;;13.60;99.90;;;;;;5094265;28;20003;-75
2022/06/01 05:51:26;;;;;;;;;;;13.80;99.90;;;;;;5068367;28;19951;-79
2022/06/01 05:59:57;;;;;;;;;;;14.20;99.90;;;;;;5076329;28;20390;-78
2022/06/01 06:02:51;;;;;;;;;;;14.30;99.90;;;;;;5080954;28;19911;-79
2022/06/01 06:11:28;;;;;;;;;;;15.10;99.90;;;;;;5083661;28;20029;-73
2022/06/01 06:13:54;;;;;;;;;;;15.00;99.90;;;;;;5092339;28;19908;-70
2022/06/01 06:19:23;;;;;;;;;;;15.00;99.90;;;;;;5074926;28;19919;-75
2022/06/01 06:21:49;;;;;;;;;;;15.00;99.90;;;;;;5080617;28;19909;-70
2022/06/01 06:24:16;;;;;;;;;;;15.00;99.90;;;;;;5084315;28;19912;-72
2022/06/01 06:26:45;;;;;;;;;;;15.00;99.90;;;;;;5073841;28;19909;-72
2022/06/01 06:29:12;;;;;;;;;;;15.00;99.90;;;;;;5073778;28;20262;-72
2022/06/01 06:31:39;;;;;;;;;;;15.10;99.90;;;;;;5073785;28;20383;-72
2022/06/01 06:34:05;;;;;;;;;;;15.10;99.90;;;;;;5073923;28;19908;-77
2022/06/01 06:36:31;;;;;;;;;;;15.20;99.90;;;;;;5091377;28;20042;-71
2022/06/01 06:38:57;;;;;;;;;;;15.30;99.90;;;;;;5093687;28;19909;-71
2022/06/01 06:41:24;;;;;;;;;;;15.40;99.90;;;;;;5079565;28;20474;-71
2022/06/01 06:43:51;;;;;;;;;;;15.40;99.90;;;;;;5093572;28;19985;-71
2022/06/01 06:46:18;;;;;;;;;;;15.40;99.90;;;;;;5080192;28;20313;-71
2022/06/01 06:48:45;;;;;;;;;;;15.50;99.90;;;;;;5093813;28;20342;-71
2022/06/01 06:51:12;;;;;;;;;;;15.50;99.90;;;;;;5088986;28;19935;-71
2022/06/01 06:53:38;;;;;;;;;;;15.50;99.90;;;;;;5085510;28;20276;-71
2022/06/01 06:56:03;;;;;;;;;;;15.60;99.90;;;;;;5091155;28;20015;-71
2022/06/01 06:58:29;;;;;;;;;;;15.70;99.90;;;;;;5077247;28;19912;-72
2022/06/01 07:00:57;;;;;;;;;;;15.80;99.90;;;;;;5090812;28;19974;-72
2022/06/01 07:03:22;;;;;;;;;;;15.90;99.90;;;;;;5089288;28;19912;-73
2022/06/01 07:08:32;;;;;;;;;;;16.20;99.90;;;;;;5096432;28;20032;-72
2022/06/01 07:10:59;;;;;;;;;;;16.40;99.90;;;;;;5074612;28;20003;-72
2022/06/01 07:17:03;;;;;;;;;;;16.50;99.90;;;;;;5077481;28;19915;-78
2022/06/01 07:19:28;;;;;;;;;;;16.70;99.90;;;;;;5088528;28;19962;-75
2022/06/01 07:21:54;;;;;;;;;;;16.80;99.90;;;;;;5084058;28;19908;-74
2022/06/01 07:24:20;;;;;;;;;;;16.90;99.90;;;;;;5086625;28;20019;-74
2022/06/01 07:26:46;;;;;;;;;;;17.10;99.90;;;;;;5081747;28;20332;-74
2022/06/01 07:29:13;;;;;;;;;;;17.20;99.90;;;;;;5086173;28;20007;-75
2022/06/01 07:31:51;;;;;;;;;;;17.20;99.90;;;;;;5090935;28;20415;-88
2022/06/01 07:34:39;;;;;;;;;;;17.40;99.90;;;;;;5090919;28;19923;-88
2022/06/01 07:43:21;;;;;;;;;;;17.60;99.90;;;;;;5077479;28;19935;-89
2022/06/01 07:46:21;;;;;;;;;;;17.40;99.90;;;;;;5091968;28;19912;-90
2022/06/01 07:49:13;;;;;;;;;;;17.40;99.90;;;;;;5101740;28;19931;-89
2022/06/01 07:51:39;;;;;;;;;;;17.40;99.90;;;;;;5089651;28;19970;-74
2022/06/01 07:54:05;;;;;;;;;;;17.40;99.90;;;;;;5081324;28;19913;-74
2022/06/01 07:56:31;;;;;;;;;;;17.50;99.90;;;;;;5066997;28;20267;-74
2022/06/01 07:58:57;;;;;;;;;;;17.60;99.90;;;;;;5083089;28;19917;-75
2022/06/01 08:01:27;;;;;;;;;;;17.70;99.90;;;;;;5096470;28;20386;-74
2022/06/01 08:03:56;;;;;;;;;;;17.80;99.90;;;;;;5082776;28;19912;-74
2022/06/01 08:09:27;;;;;;;;;;;18.00;99.90;;;;;;5056703;28;19916;-89
2022/06/01 08:15:21;;;;;;;;;;;18.30;99.90;;;;;;5049062;28;19909;-89
2022/06/01 08:18:21;;;;;;;;;;;18.50;99.90;;;;;;5055009;28;19995;-90
2022/06/01 08:24:21;;;;;;;;;;;18.80;99.90;;;;;;5034745;28;19928;-90
2022/06/01 08:27:21;;;;;;;;;;;19.00;99.90;;;;;;5035221;28;19910;-89
2022/06/01 08:29:51;;;;;;;;;;;19.10;99.90;;;;;;5037382;28;19935;-90
2022/06/01 08:32:21;;;;;;;;;;;19.20;99.90;;;;;;5044797;28;19932;-90
2022/06/01 08:34:51;;;;;;;;;;;19.30;99.90;;;;;;5021424;28;19925;-74
2022/06/01 08:37:17;;;;;;;;;;;19.30;99.90;;;;;;5052836;28;20008;-90
2022/06/01 08:49:13;;;;;;;;;;;20.10;99.90;;;;;;5034756;28;20020;-91
2022/06/01 08:51:38;;;;;;;;;;;20.20;99.90;;;;;;5053698;28;20389;-75
2022/06/01 08:54:04;;;;;;;;;;;20.30;99.90;;;;;;5077963;28;19991;-74
2022/06/01 08:56:47;;;;;;;;;;;20.20;99.90;;;;;;5075503;28;19936;-74
2022/06/01 08:59:29;;;;;;;;;;;20.10;99.90;;;;;;5088569;28;19975;-74
2022/06/01 09:02:06;;;;;;;;;;;20.20;99.90;;;;;;5088470;28;19908;-75
2022/06/01 09:04:37;;;;;;;;;;;20.20;99.90;;;;;;5062656;28;19956;-74
2022/06/01 09:10:15;;;;;;;;;;;20.40;99.90;;;;;;5073335;28;19955;-90
2022/06/01 09:12:58;;;;;;;;;;;20.20;99.90;;;;;;5075954;28;19912;-90
2022/06/01 09:15:44;;;;;;;;;;;20.20;99.90;;;;;;5078726;28;20409;-90
2022/06/01 09:27:32;;;;;;;;;;;20.60;99.90;;;;;;5055499;28;19916;-90
2022/06/01 09:30:21;;;;;;;;;;;20.80;99.90;;;;;;5061182;28;19915;-80
2022/06/01 09:32:59;;;;;;;;;;;20.90;99.90;;;;;;5080730;28;20057;-79
2022/06/01 09:35:28;;;;;;;;;;;21.10;99.90;;;;;;5073987;28;19935;-74
2022/06/01 09:38:22;;;;;;;;;;;21.50;99.90;;;;;;5096673;28;19912;-81
2022/06/01 09:41:11;;;;;;;;;;;21.90;99.90;;;;;;5081717;28;19909;-79
2022/06/01 09:44:11;;;;;;;;;;;22.00;99.90;;;;;;5069840;28;19912;-82
2022/06/01 09:46:53;;;;;;;;;;;21.90;99.90;;;;;;5039643;28;20325;-81
2022/06/01 09:49:24;;;;;;;;;;;21.70;99.90;;;;;;5038679;28;20292;-81
2022/06/01 09:51:54;;;;;;;;;;;21.80;99.90;;;;;;5052412;28;20767;-73
2022/06/01 09:54:20;;;;;;;;;;;22.00;99.90;;;;;;5051854;28;19919;-74
2022/06/01 09:56:47;;;;;;;;;;;22.10;99.90;;;;;;5041812;28;19936;-74
2022/06/01 10:11:09;;;;;;;;;;;21.70;99.90;;;;;;5038284;28;19941;-79
2022/06/01 10:16:51;;;;;;;;;;;21.80;99.90;;;;;;5038231;28;20332;-79
2022/06/01 10:19:38;;;;;;;;;;;22.20;99.90;;;;;;5043184;28;20400;-79
2022/06/01 10:22:21;;;;;;;;;;;22.70;99.90;;;;;;5063919;28;19909;-78
2022/06/01 10:24:56;;;;;;;;;;;23.10;99.90;;;;;;5073934;28;19912;-79
2022/06/01 10:33:34;;;;;;;;;;;22.20;99.90;;;;;;5087162;28;19914;-78
2022/06/01 10:39:06;;;;;;;;;;;21.70;99.90;;;;;;5088227;28;19954;-71
2022/06/01 10:41:52;;;;;;;;;;;21.50;99.90;;;;;;5100087;28;20321;-71
2022/06/01 10:44:24;;;;;;;;;;;21.40;99.90;;;;;;5098130;28;20293;-71
2022/06/01 10:47:08;;;;;;;;;;;21.20;99.90;;;;;;5089961;28;20255;-72
2022/06/01 10:49:54;;;;;;;;;;;21.30;99.90;;;;;;5086965;28;19995;-72
2022/06/01 11:01:52;;;;;;;;;;;22.40;99.90;;;;;;5078813;28;20007;-78
2022/06/01 11:07:38;;;;;;;;;;;23.00;99.90;;;;;;5054230;28;20426;-81
2022/06/01 11:13:13;;;;;;;;;;;22.50;99.90;;;;;;5049582;28;19931;-80
2022/06/01 11:16:04;;;;;;;;;;;22.60;99.90;;;;;;5038664;28;20008;-80
2022/06/01 11:18:57;;;;;;;;;;;22.60;99.90;;;;;;5051660;28;20273;-77
2022/06/01 11:21:25;;;;;;;;;;;22.70;99.90;;;;;;5051406;28;19909;-76
2022/06/01 11:24:21;;;;;;;;;;;22.80;99.90;;;;;;5051775;28;19919;-76
2022/06/01 11:27:03;;;;;;;;;;;22.70;99.90;;;;;;5042508;28;19963;-76
2022/06/01 11:29:36;;;;;;;;;;;22.90;99.90;;;;;;5045054;28;19932;-76
2022/06/01 11:32:27;;;;;;;;;;;22.90;99.90;;;;;;5037940;28;19909;-77
2022/06/01 11:34:52;;;;;;;;;;;22.90;99.90;;;;;;5047245;28;19916;-77
2022/06/01 11:37:22;;;;;;;;;;;23.30;99.90;;;;;;5047789;28;19909;-73
2022/06/01 11:40:04;;;;;;;;;;;23.30;99.90;;;;;;5041848;28;19994;-73
2022/06/01 11:42:30;;;;;;;;;;;23.60;99.90;;;;;;5095751;28;20406;-73
2022/06/01 11:45:16;;;;;;;;;;;24.00;99.90;;;;;;5080556;28;19951;-73
2022/06/01 11:47:46;;;;;;;;;;;24.10;99.90;;;;;;5082886;28;20256;-73
2022/06/01 11:50:30;;;;;;;;;;;23.70;99.90;;;;;;5086971;28;19908;-72
2022/06/01 11:53:05;;;;;;;;;;;23.80;99.90;;;;;;5096156;28;19916;-76
2022/06/01 11:55:45;;;;;;;;;;;23.90;99.90;;;;;;5083081;28;19912;-77
2022/06/01 11:58:39;;;;;;;;;;;24.30;99.90;;;;;;5088149;28;19962;-77
2022/06/01 12:01:12;;;;;;;;;;;24.10;99.90;;;;;;5089566;28;19916;-76
2022/06/01 12:03:51;;;;;;;;;;;24.20;99.90;;;;;;5090113;28;20415;-77
2022/06/01 12:09:23;;;;;;;;;;;24.10;99.90;;;;;;5063236;28;19920;-77
2022/06/01 12:11:51;;;;;;;;;;;24.00;99.90;;;;;;5076556;28;19995;-77
2022/06/01 12:14:20;;;;;;;;;;;24.10;99.90;;;;;;5083672;28;19912;-77
2022/06/01 12:16:46;;;;;;;;;;;24.50;99.90;;;;;;5090830;28;19908;-77
2022/06/01 12:19:14;;;;;;;;;;;24.40;99.90;;;;;;5083499;28;20415;-76
2022/06/01 12:21:42;;;;;;;;;;;24.60;99.90;;;;;;5082919;28;20015;-77
2022/06/01 12:30:22;;;;;;;;;;;24.00;99.90;;;;;;5085840;28;19961;-75
2022/06/01 12:32:59;;;;;;;;;;;24.10;99.90;;;;;;5089709;28;20369;-76
2022/06/01 12:35:45;;;;;;;;;;;24.10;99.90;;;;;;5084894;28;19908;-76
2022/06/01 12:38:17;;;;;;;;;;;24.20;99.90;;;;;;5083073;28;20304;-73
2022/06/01 12:40:53;;;;;;;;;;;24.20;99.90;;;;;;5083319;28;19957;-74
2022/06/01 12:43:19;;;;;;;;;;;24.00;99.90;;;;;;5062659;28;19931;-73
2022/06/01 12:45:45;;;;;;;;;;;23.90;99.90;;;;;;5089724;28;19915;-73
2022/06/01 12:48:15;;;;;;;;;;;24.00;99.90;;;;;;5088233;28;19912;-73
2022/06/01 12:50:58;;;;;;;;;;;24.00;99.90;;;;;;5090659;28;19912;-73
2022/06/01 12:53:25;;;;;;;;;;;23.90;99.90;;;;;;5095700;28;19916;-76
2022/06/01 12:56:12;;;;;;;;;;;23.90;99.90;;;;;;5082256;28;19912;-76
2022/06/01 12:58:40;;;;;;;;;;;24.20;99.90;;;;;;5082320;28;19915;-76
2022/06/01 13:01:06;;;;;;;;;;;24.50;99.90;;;;;;5068750;28;19927;-75
2022/06/01 13:03:57;;;;;;;;;;;24.50;99.90;;;;;;5082030;28;19916;-76
2022/06/01 13:06:45;;;;;;;;;;;24.20;99.90;;;;;;5085228;28;19908;-76
2022/06/01 13:09:12;;;;;;;;;;;24.10;99.90;;;;;;5069270;28;20318;-75
2022/06/01 13:11:38;;;;;;;;;;;24.10;99.90;;;;;;5081607;28;19954;-76
2022/06/01 13:14:05;;;;;;;;;;;24.30;99.90;;;;;;5088597;28;19916;-76
2022/06/01 13:16:47;;;;;;;;;;;24.40;99.90;;;;;;5089118;28;19908;-76
2022/06/01 13:19:29;;;;;;;;;;;24.60;99.90;;;;;;5084263;28;19908;-77
2022/06/01 13:22:16;;;;;;;;;;;24.70;99.90;;;;;;5059681;28;19912;-76
2022/06/01 13:24:45;;;;;;;;;;;24.90;99.90;;;;;;5080316;28;19966;-76
2022/06/01 13:27:15;;;;;;;;;;;25.20;99.90;;;;;;5082788;28;19912;-76
2022/06/01 13:29:53;;;;;;;;;;;25.00;99.90;;;;;;5079665;28;19972;-76
2022/06/01 13:35:42;;;;;;;;;;;24.90;99.90;;;;;;5066508;28;19915;-76
2022/06/01 13:38:16;;;;;;;;;;;24.70;99.90;;;;;;5087946;28;20008;-76
2022/06/01 13:40:52;;;;;;;;;;;24.80;99.90;;;;;;5069986;28;20522;-76
2022/06/01 13:43:27;;;;;;;;;;;24.90;99.90;;;;;;5061203;28;20375;-76
2022/06/01 13:45:55;;;;;;;;;;;24.90;99.90;;;;;;5075945;28;19912;-76
2022/06/01 13:48:57;;;;;;;;;;;24.70;99.90;;;;;;5092064;28;20459;-78
2022/06/01 13:51:42;;;;;;;;;;;24.50;99.90;;;;;;5087996;28;19918;-80
2022/06/01 13:54:20;;;;;;;;;;;24.50;99.90;;;;;;5091093;28;19979;-73
2022/06/01 13:56:48;;;;;;;;;;;24.40;99.90;;;;;;5087808;28;19908;-74
2022/06/01 13:59:28;;;;;;;;;;;24.30;99.90;;;;;;5080047;28;19966;-74
2022/06/01 14:01:55;;;;;;;;;;;24.20;99.90;;;;;;5081307;28;20360;-74
2022/06/01 14:04:26;;;;;;;;;;;24.20;99.90;;;;;;5063010;28;19920;-74
2022/06/01 14:06:54;;;;;;;;;;;24.30;99.90;;;;;;5073220;28;19957;-74
2022/06/01 14:09:22;;;;;;;;;;;24.60;99.90;;;;;;5070964;28;19960;-73
2022/06/01 14:11:48;;;;;;;;;;;24.90;99.90;;;;;;5073638;28;20092;-72
2022/06/01 14:14:17;;;;;;;;;;;25.10;99.90;;;;;;5075008;28;19920;-71
2022/06/01 14:16:48;;;;;;;;;;;25.10;99.90;;;;;;5076158;28;20359;-72
2022/06/01 14:19:14;;;;;;;;;;;25.20;99.90;;;;;;5082660;28;19913;-72
2022/06/01 14:21:39;;;;;;;;;;;25.30;99.90;;;;;;5067452;28;19920;-72
2022/06/01 14:32:56;;;;;;;;;;;25.40;99.90;;;;;;5077816;28;19954;-82
2022/06/01 14:38:25;;;;;;;;;;;25.60;99.90;;;;;;5080284;28;20386;-81
2022/06/01 14:46:56;;;;;;;;;;;26.00;99.90;;;;;;5080305;28;19915;-82
2022/06/01 14:52:24;;;;;;;;;;;26.10;99.90;;;;;;5076441;28;20000;-83
2022/06/01 15:01:00;;;;;;;;;;;25.50;99.90;;;;;;5065101;28;20351;-82
2022/06/01 15:09:32;;;;;;;;;;;26.00;99.90;;;;;;5079132;28;20011;-80
2022/06/01 15:15:00;;;;;;;;;;;28.10;99.90;;;;;;5086641;28;19919;-81
2022/06/01 15:23:33;;;;;;;;;;;32.30;99.90;;;;;;5066136;28;20233;-81
2022/06/01 15:25:59;;;;;;;;;;;33.60;99.90;;;;;;5078989;28;19913;-74
2022/06/01 15:28:25;;;;;;;;;;;32.90;99.90;;;;;;5092180;28;19912;-74
2022/06/01 15:42:15;;;;;;;;;;;33.80;99.90;;;;;;5085196;28;19953;-78
2022/06/01 15:44:41;;;;;;;;;;;34.50;99.90;;;;;;5066290;28;20337;-78
2022/06/01 15:47:17;;;;;;;;;;;36.30;99.90;;;;;;5073250;28;19999;-78
2022/06/01 15:49:46;;;;;;;;;;;37.20;99.90;;;;;;5086970;28;19938;-78
2022/06/01 15:52:17;;;;;;;;;;;37.30;99.90;;;;;;5076493;28;19912;-78
2022/06/01 15:54:43;;;;;;;;;;;38.30;99.90;;;;;;5076196;28;20414;-77
2022/06/01 15:57:10;;;;;;;;;;;38.80;99.90;;;;;;5087276;28;19947;-78
2022/06/01 15:59:36;;;;;;;;;;;38.80;99.90;;;;;;5084879;28;20444;-75
2022/06/01 16:02:03;;;;;;;;;;;38.20;99.90;;;;;;5096274;28;20010;-75
2022/06/01 16:04:28;;;;;;;;;;;37.80;99.90;;;;;;5083182;28;20290;-78
2022/06/01 16:06:54;;;;;;;;;;;38.60;99.90;;;;;;5085080;28;19909;-75
2022/06/01 16:09:20;;;;;;;;;;;39.30;99.90;;;;;;5082331;28;19912;-75
2022/06/01 16:11:51;;;;;;;;;;;41.10;99.90;;;;;;5085368;28;19909;-79
2022/06/01 16:14:17;;;;;;;;;;;41.50;99.90;;;;;;5081514;28;20049;-80
2022/06/01 16:16:45;;;;;;;;;;;41.10;99.90;;;;;;5084204;28;19956;-80
2022/06/01 16:19:15;;;;;;;;;;;41.80;99.90;;;;;;5086466;28;19915;-80
2022/06/01 16:21:41;;;;;;;;;;;42.20;99.90;;;;;;5096303;28;20343;-80
2022/06/01 16:24:08;;;;;;;;;;;41.90;99.90;;;;;;5075971;28;20375;-80
2022/06/01 16:26:34;;;;;;;;;;;41.50;99.90;;;;;;5058717;28;20269;-80
2022/06/01 16:29:21;;;;;;;;;;;42.10;99.90;;;;;;5086413;28;19916;-80
2022/06/01 16:31:57;;;;;;;;;;;42.00;99.90;;;;;;5089223;28;19958;-80
2022/06/01 16:34:33;;;;;;;;;;;41.40;99.90;;;;;;5075769;28;19908;-79
2022/06/01 16:37:16;;;;;;;;;;;40.20;99.90;;;;;;5089404;28;19931;-79
2022/06/01 16:40:15;;;;;;;;;;;39.10;99.90;;;;;;5089186;28;20363;-80
2022/06/01 16:42:42;;;;;;;;;;;39.70;99.90;;;;;;5075868;28;19912;-76
2022/06/01 16:45:10;;;;;;;;;;;40.60;99.90;;;;;;5075477;28;19912;-76
2022/06/01 16:47:36;;;;;;;;;;;41.70;99.90;;;;;;5075186;28;20385;-76
2022/06/01 16:50:01;;;;;;;;;;;42.50;99.90;;;;;;5079910;28;19916;-76
2022/06/01 16:52:28;;;;;;;;;;;42.40;99.90;;;;;;5083412;28;20043;-76
2022/06/01 16:54:54;;;;;;;;;;;42.30;99.90;;;;;;5088924;28;19909;-76
2022/06/01 16:57:29;;;;;;;;;;;41.00;99.90;;;;;;5087965;28;19908;-76
2022/06/01 16:59:55;;;;;;;;;;;40.40;99.90;;;;;;5074764;28;19936;-76
2022/06/01 17:02:21;;;;;;;;;;;41.50;99.90;;;;;;5074830;28;19974;-77
2022/06/01 17:04:46;;;;;;;;;;;42.10;99.90;;;;;;5088471;28;19938;-76
2022/06/01 17:07:16;;;;;;;;;;;42.60;99.90;;;;;;5086143;28;19908;-80
2022/06/01 17:09:51;;;;;;;;;;;42.70;99.90;;;;;;5069437;28;20400;-80
2022/06/01 17:12:18;;;;;;;;;;;42.50;99.90;;;;;;5081733;28;20349;-75
2022/06/01 17:14:44;;;;;;;;;;;42.60;99.90;;;;;;5086387;28;19931;-75
2022/06/01 17:17:12;;;;;;;;;;;41.80;99.90;;;;;;5061862;28;19908;-75
2022/06/01 17:19:38;;;;;;;;;;;41.90;99.90;;;;;;5082416;28;19908;-75
2022/06/01 17:22:04;;;;;;;;;;;42.20;99.90;;;;;;5094014;28;19908;-76
2022/06/01 17:24:29;;;;;;;;;;;42.20;99.90;;;;;;5094883;28;19912;-76
2022/06/01 17:29:58;;;;;;;;;;;42.90;99.90;;;;;;5076052;28;20405;-81
2022/06/01 17:35:45;;;;;;;;;;;41.60;99.90;;;;;;5065045;28;20003;-81
2022/06/01 17:41:13;;;;;;;;;;;39.50;99.90;;;;;;5077527;28;19914;-82
2022/06/01 17:46:42;;;;;;;;;;;35.40;99.90;;;;;;5070652;28;19923;-78
2022/06/01 17:49:13;;;;;;;;;;;33.10;99.90;;;;;;5094505;28;19912;-81
2022/06/01 17:57:46;;;;;;;;;;;28.80;99.90;;;;;;5094772;28;19916;-79
2022/06/01 18:00:13;;;;;;;;;;;27.60;99.90;;;;;;5094284;28;19915;-78
2022/06/01 18:05:41;;;;;;;;;;;25.70;99.90;;;;;;5074664;28;20390;-80
2022/06/01 18:11:14;;;;;;;;;;;24.00;99.90;;;;;;5094384;28;19914;-83
2022/06/01 18:16:43;;;;;;;;;;;22.90;99.90;;;;;;5074056;28;19916;-81
2022/06/01 18:19:39;;;;;;;;;;;22.40;99.90;;;;;;5078677;28;19908;-81
2022/06/01 18:28:12;;;;;;;;;;;21.20;99.90;;;;;;5073703;28;19965;-79
2022/06/01 18:33:41;;;;;;;;;;;20.50;99.90;;;;;;5075943;28;20059;-79
2022/06/01 18:45:16;;;;;;;;;;;19.50;99.90;;;;;;5086181;28;19938;-79
2022/06/01 18:56:51;;;;;;;;;;;18.80;99.90;;;;;;5070365;28;20310;-80
2022/06/01 19:02:19;;;;;;;;;;;18.50;99.90;;;;;;5090741;28;19945;-80
2022/06/01 19:10:51;;;;;;;;;;;18.10;99.90;;;;;;5094005;28;20415;-78
2022/06/01 19:16:27;;;;;;;;;;;17.90;99.90;;;;;;5067518;28;20409;-74
2022/06/01 19:18:54;;;;;;;;;;;17.90;99.90;;;;;;5078781;28;19909;-75
2022/06/01 19:21:39;;;;;;;;;;;17.80;99.90;;;;;;5078379;28;20023;-73
2022/06/01 19:24:06;;;;;;;;;;;17.70;99.90;;;;;;5090328;28;20363;-73
2022/06/01 19:26:32;;;;;;;;;;;17.60;99.90;;;;;;5089746;28;19965;-73
2022/06/01 19:28:58;;;;;;;;;;;17.50;99.90;;;;;;5065708;28;19912;-73
2022/06/01 19:31:25;;;;;;;;;;;17.40;99.90;;;;;;5065857;28;19920;-73
2022/06/01 19:33:52;;;;;;;;;;;17.30;99.90;;;;;;5087496;28;20003;-73
2022/06/01 19:44:35;;;;;;;;;;;16.90;99.90;;;;;;5080047;28;20409;-73
2022/06/01 19:47:03;;;;;;;;;;;16.70;99.90;;;;;;5076733;28;19913;-73
2022/06/01 19:49:39;;;;;;;;;;;16.70;99.90;;;;;;5078145;28;19915;-74
2022/06/01 19:52:05;;;;;;;;;;;16.60;99.90;;;;;;5087178;28;19913;-74
2022/06/01 19:54:32;;;;;;;;;;;16.60;99.90;;;;;;5079254;28;19916;-73
2022/06/01 19:56:58;;;;;;;;;;;16.50;99.90;;;;;;5087500;28;19909;-73
2022/06/01 19:59:25;;;;;;;;;;;16.50;99.90;;;;;;5060648;28;19919;-74
2022/06/01 20:01:54;;;;;;;;;;;16.50;99.90;;;;;;5089262;28;19999;-73
2022/06/01 20:04:21;;;;;;;;;;;16.50;99.90;;;;;;5079362;28;19923;-73
2022/06/01 20:06:51;;;;;;;;;;;16.50;99.90;;;;;;5086723;28;19915;-73
2022/06/01 20:09:18;;;;;;;;;;;16.50;99.90;;;;;;5060835;28;19908;-74
2022/06/01 20:14:44;;;;;;;;;;;16.60;99.90;;;;;;5063737;28;20275;-73
2022/06/01 20:17:11;;;;;;;;;;;16.50;99.90;;;;;;5071713;28;19908;-74
2022/06/01 20:19:37;;;;;;;;;;;16.60;99.90;;;;;;5079346;28;20351;-74
2022/06/01 20:22:02;;;;;;;;;;;16.60;99.90;;;;;;5078572;28;19961;-74